createdAt,value
2022-08-05T00:02:07.731Z,22.80
2022-08-05T00:04:57.328Z,22.70
2022-08-05T00:07:59.799Z,22.70
2022-08-05T00:10:47.303Z,22.70
2022-08-05T00:13:39.314Z,22.70
2022-08-05T00:16:35.700Z,22.80
2022-08-05T00:19:24.692Z,22.80
2022-08-05T00:22:11.391Z,22.80
2022-08-05T00:24:58.001Z,22.70
2022-08-05T00:27:43.942Z,22.70
2022-08-05T00:30:32.111Z,22.60
2022-08-05T00:34:56.487Z,22.50
2022-08-05T00:37:11.836Z,22.50
2022-08-05T00:39:37.063Z,22.50
2022-08-05T00:42:36.795Z,22.40
2022-08-05T00:45:37.875Z,22.30
2022-08-05T00:48:27.498Z,22.40
2022-08-05T00:51:51.178Z,22.30
2022-08-05T00:54:22.758Z,22.30
2022-08-05T00:57:14.358Z,22.30
2022-08-05T01:00:00.289Z,22.30
2022-08-05T01:02:46.199Z,22.30
2022-08-05T01:05:31.804Z,22.30
2022-08-05T01:08:41.181Z,22.40
2022-08-05T01:11:37.028Z,22.40
2022-08-05T01:14:47.942Z,22.30
2022-08-05T01:17:44.044Z,22.20
2022-08-05T01:20:50.857Z,22.10
2022-08-05T01:24:01.713Z,22.10
2022-08-05T01:27:32.978Z,22.10
2022-08-05T01:30:19.266Z,22.20
2022-08-05T01:33:25.453Z,22.20
2022-08-05T01:36:16.918Z,22.20
2022-08-05T01:39:06.933Z,22.20
2022-08-05T01:41:55.950Z,22.20
2022-08-05T01:44:45.796Z,22.20
2022-08-05T01:47:43.180Z,22.20
2022-08-05T01:50:38.592Z,22.20
2022-08-05T01:53:54.940Z,22.20
2022-08-05T01:58:18.883Z,22.20
2022-08-05T01:59:47.286Z,22.10
2022-08-05T02:02:36.749Z,22.10
2022-08-05T02:05:36.575Z,22.10
2022-08-05T02:08:30.691Z,22.10
2022-08-05T02:11:23.647Z,22.00
2022-08-05T02:14:14.711Z,22.00
2022-08-05T02:17:16.736Z,21.90
2022-08-05T02:20:22.121Z,21.80
2022-08-05T02:23:10.815Z,21.70
2022-08-05T02:26:00.331Z,21.70
2022-08-05T02:28:49.037Z,21.60
2022-08-05T02:31:37.093Z,21.70
2022-08-05T02:34:24.249Z,21.70
2022-08-05T02:37:14.918Z,21.60
2022-08-05T02:40:03.459Z,21.50
2022-08-05T02:42:53.019Z,21.30
2022-08-05T02:45:52.149Z,21.30
2022-08-05T02:48:40.124Z,21.20
2022-08-05T02:52:02.841Z,21.30
2022-08-05T02:54:41.348Z,21.20
2022-08-05T02:58:20.088Z,21.20
2022-08-05T06:07:12.931Z,30.10
2022-08-05T06:10:00.588Z,30.40
2022-08-05T06:12:49.116Z,30.50
2022-08-05T06:16:29.829Z,30.80
2022-08-05T06:18:41.626Z,30.70
2022-08-05T06:21:36.690Z,30.50
2022-08-05T06:24:27.323Z,30.60
2022-08-05T06:27:17.174Z,30.90
2022-08-05T06:30:21.196Z,31.50
2022-08-05T06:33:10.772Z,32.20
2022-08-05T06:36:08.240Z,32.50
2022-08-05T06:38:56.370Z,32.70
2022-08-05T06:41:42.995Z,33.40
2022-08-05T06:44:31.416Z,33.10
2022-08-05T06:48:11.488Z,32.90
2022-08-05T06:50:24.994Z,33.10
2022-08-05T06:53:22.516Z,32.90
2022-08-05T06:56:26.246Z,32.70
2022-08-05T06:59:15.039Z,32.60
2022-08-05T07:02:00.873Z,32.60
2022-08-05T07:04:47.364Z,32.50
2022-08-05T07:07:35.393Z,32.40
2022-08-05T07:10:30.474Z,32.60
2022-08-05T07:13:57.161Z,32.30
2022-08-05T07:18:00.620Z,32.10
2022-08-05T07:23:02.835Z,32.10
2022-08-05T07:25:55.907Z,32.00
2022-08-05T07:28:42.774Z,32.20
2022-08-05T07:31:40.946Z,32.50
2022-08-05T07:34:35.252Z,32.80
2022-08-05T07:37:23.238Z,33.00
2022-08-05T07:40:26.727Z,32.70
2022-08-05T07:43:20.834Z,33.00
2022-08-05T07:46:06.980Z,33.00
2022-08-05T07:49:10.731Z,32.80
2022-08-05T07:51:56.736Z,33.20
2022-08-05T07:54:49.092Z,33.40
2022-08-05T07:57:41.837Z,33.70
2022-08-05T08:00:41.778Z,33.70
2022-08-05T08:03:44.596Z,33.90
2022-08-05T08:06:31.254Z,34.00
2022-08-05T08:09:16.940Z,34.60
2022-08-05T08:12:14.641Z,34.60
2022-08-05T08:15:15.404Z,34.20
2022-08-05T08:18:03.547Z,34.30
2022-08-05T08:21:02.289Z,34.30
2022-08-05T08:24:01.501Z,34.20
2022-08-05T08:26:50.894Z,34.30
2022-08-05T08:30:06.137Z,34.40
2022-08-05T08:32:43.940Z,34.40
2022-08-05T08:35:35.012Z,34.80
2022-08-05T08:38:35.108Z,35.00
2022-08-05T08:41:25.924Z,34.70
2022-08-05T08:45:19.091Z,34.60
2022-08-05T08:48:06.932Z,34.90
2022-08-05T08:51:07.709Z,34.70
2022-08-05T08:53:44.473Z,34.70
2022-08-05T08:56:32.294Z,34.90
2022-08-05T08:59:20.773Z,34.80
2022-08-05T09:02:08.700Z,34.80
2022-08-05T09:05:16.023Z,34.90
2022-08-05T09:08:00.863Z,34.90
2022-08-05T09:10:47.062Z,35.00
2022-08-05T09:13:50.750Z,35.50
2022-08-05T09:16:41.188Z,35.90
2022-08-05T09:19:36.414Z,36.30
2022-08-05T09:22:32.095Z,36.30
2022-08-05T09:25:24.340Z,36.40
2022-08-05T09:28:32.629Z,36.80
2022-08-05T09:31:44.023Z,37.20
2022-08-05T09:34:26.093Z,36.80
2022-08-05T09:38:17.424Z,36.60
2022-08-05T09:40:51.814Z,36.40
2022-08-05T09:43:40.951Z,35.80
2022-08-05T09:46:33.383Z,36.00
2022-08-05T09:49:54.862Z,35.90
2022-08-05T09:52:36.190Z,36.20
2022-08-05T09:55:56.449Z,36.10
2022-08-05T09:58:42.542Z,35.80
2022-08-05T10:01:32.267Z,35.90
2022-08-05T10:04:18.781Z,36.20
2022-08-05T10:07:21.073Z,36.30
2022-08-05T10:10:28.302Z,36.50
2022-08-05T10:13:27.565Z,37.00
2022-08-05T10:16:37.685Z,37.10
2022-08-05T10:19:31.887Z,36.50
2022-08-05T10:22:35.116Z,36.60
2022-08-05T10:25:24.373Z,36.20
2022-08-05T10:28:17.056Z,36.00
2022-08-05T10:32:47.765Z,36.30
2022-08-05T10:34:11.303Z,36.50
2022-08-05T10:36:57.508Z,36.60
2022-08-05T10:40:03.218Z,37.10
2022-08-05T10:42:54.208Z,37.20
2022-08-05T10:45:42.346Z,36.20
2022-08-05T10:48:57.318Z,36.20
2022-08-05T10:51:57.669Z,36.40
2022-08-05T10:55:05.203Z,36.40
2022-08-05T10:58:21.185Z,36.60
2022-08-05T11:01:07.704Z,36.60
2022-08-05T11:04:17.642Z,36.50
2022-08-05T11:07:09.236Z,36.20
2022-08-05T11:10:03.679Z,36.20
2022-08-05T11:12:58.353Z,36.00
2022-08-05T11:16:00.662Z,35.90
2022-08-05T11:18:48.226Z,35.90
2022-08-05T11:21:40.971Z,36.00
2022-08-05T11:24:35.658Z,36.40
2022-08-05T11:27:51.524Z,36.70
2022-08-05T11:30:58.495Z,36.70
2022-08-05T11:33:51.698Z,36.50
2022-08-05T11:36:52.984Z,36.40
2022-08-05T11:40:00.570Z,36.10
2022-08-05T11:42:49.916Z,36.00
2022-08-05T11:46:15.004Z,35.50
2022-08-05T11:48:54.892Z,34.80
2022-08-05T11:51:49.466Z,34.20
2022-08-05T11:54:38.283Z,33.70
2022-08-05T11:58:08.038Z,33.40
2022-08-05T12:14:43.307Z,33.10
2022-08-05T12:18:03.265Z,33.00
2022-08-05T12:20:41.879Z,33.10
2022-08-05T12:23:27.951Z,33.20
2022-08-05T12:26:15.295Z,33.20
2022-08-05T12:29:01.359Z,33.30
2022-08-05T12:31:55.320Z,33.30
2022-08-05T12:34:43.211Z,33.30
2022-08-05T12:37:30.081Z,33.30
2022-08-05T12:40:26.544Z,33.10
2022-08-05T12:43:20.606Z,33.00
2022-08-05T12:46:07.276Z,32.80
2022-08-05T12:49:13.588Z,32.80
2022-08-05T12:52:12.629Z,32.90
2022-08-05T12:55:18.218Z,33.10
2022-08-05T12:58:48.952Z,33.20
2022-08-05T13:02:01.237Z,33.20
2022-08-05T13:04:21.851Z,33.30
2022-08-05T13:07:17.377Z,33.40
2022-08-05T13:10:19.900Z,33.50
2022-08-05T13:13:06.763Z,33.50
2022-08-05T13:15:54.706Z,33.60
2022-08-05T13:18:55.265Z,33.60
2022-08-05T13:21:52.320Z,33.50
2022-08-05T13:24:57.620Z,33.50
2022-08-05T13:27:50.278Z,33.70
2022-08-05T13:30:39.228Z,33.60
2022-08-05T13:34:21.361Z,33.40
2022-08-05T13:36:31.091Z,33.40
2022-08-05T13:40:13.055Z,33.60
2022-08-05T13:42:23.391Z,33.80
2022-08-05T13:45:12.106Z,33.70
2022-08-05T13:48:09.954Z,34.00
2022-08-05T13:51:13.662Z,34.20
2022-08-05T13:53:59.940Z,34.30
2022-08-05T13:56:50.947Z,34.40
2022-08-05T13:59:37.703Z,34.70
2022-08-05T14:02:43.322Z,35.20
2022-08-05T14:05:48.220Z,35.80
2022-08-05T14:08:35.300Z,36.20
2022-08-05T14:11:22.053Z,36.30
2022-08-05T14:14:08.895Z,36.30
2022-08-05T14:16:55.367Z,36.40
2022-08-05T14:19:54.600Z,36.60
2022-08-05T14:22:50.241Z,36.90
2022-08-05T14:25:36.165Z,36.70
2022-08-05T14:28:31.308Z,36.60
2022-08-05T14:32:03.751Z,36.70
2022-08-05T14:34:23.690Z,36.60
2022-08-05T14:37:13.301Z,35.80
2022-08-05T14:39:59.876Z,35.40
2022-08-05T14:42:45.959Z,35.30
2022-08-05T14:45:31.491Z,35.50
2022-08-05T14:48:33.234Z,35.70
2022-08-05T14:51:20.052Z,36.00
2022-08-05T14:54:26.637Z,36.60
2022-08-05T14:57:13.709Z,36.50
2022-08-05T14:59:59.503Z,35.90
2022-08-05T15:02:46.216Z,35.10
2022-08-05T15:06:08.126Z,35.00
2022-08-05T15:09:01.279Z,35.00
2022-08-05T15:11:52.885Z,35.40
2022-08-05T15:14:42.253Z,35.80
2022-08-05T15:17:47.373Z,35.60
2022-08-05T15:20:37.262Z,35.50
2022-08-05T15:23:23.726Z,35.00
2022-08-05T15:26:09.572Z,34.50
2022-08-05T15:28:55.459Z,34.60
2022-08-05T15:31:41.207Z,35.10
2022-08-05T15:34:33.087Z,35.60
2022-08-05T15:38:08.419Z,35.30
2022-08-05T15:40:59.097Z,35.60
2022-08-05T15:43:31.154Z,35.50
2022-08-05T15:46:31.873Z,34.60
2022-08-05T15:49:26.220Z,33.20
2022-08-05T15:52:51.618Z,32.40
2022-08-05T15:56:03.071Z,32.00
2022-08-05T15:58:37.191Z,31.30
2022-08-05T16:01:29.305Z,30.70
2022-08-05T16:04:15.407Z,30.20
2022-08-05T16:07:04.257Z,30.10
2022-08-05T16:09:51.722Z,30.00
2022-08-05T16:12:40.176Z,30.00
2022-08-05T16:15:32.668Z,29.60
2022-08-05T16:18:20.205Z,29.30
2022-08-05T16:21:14.918Z,28.80
2022-08-05T16:24:03.469Z,28.70
2022-08-05T16:27:00.508Z,28.40
2022-08-05T16:29:50.285Z,28.50
2022-08-05T16:32:36.910Z,28.30
2022-08-05T16:35:27.986Z,28.30
2022-08-05T16:38:25.423Z,28.20
2022-08-05T16:42:12.259Z,28.00
2022-08-05T16:44:21.099Z,27.50
2022-08-05T16:47:24.671Z,27.10
2022-08-05T16:50:17.970Z,26.90
2022-08-05T16:53:12.273Z,26.70
2022-08-05T16:55:58.688Z,26.50
2022-08-05T16:58:44.641Z,26.50
2022-08-05T17:01:52.999Z,26.40
2022-08-05T17:04:36.483Z,26.20
2022-08-05T17:07:43.609Z,26.00
2022-08-05T17:10:32.093Z,25.80
2022-08-05T17:13:21.311Z,25.50
2022-08-05T17:16:33.451Z,25.20
2022-08-05T17:19:21.450Z,25.00
2022-08-05T17:22:07.158Z,24.60
2022-08-05T17:24:56.844Z,24.40
2022-08-05T17:27:44.269Z,24.30
2022-08-05T17:30:30.091Z,24.00
2022-08-05T17:33:16.164Z,23.80
2022-08-05T17:36:07.465Z,23.60
2022-08-05T17:38:55.081Z,23.50
2022-08-05T17:42:20.438Z,23.40
2022-08-05T17:44:50.899Z,23.30
2022-08-05T17:47:37.867Z,23.30
2022-08-05T17:50:28.234Z,23.20
2022-08-05T17:53:15.875Z,23.20
2022-08-05T17:56:06.642Z,23.20
2022-08-05T17:58:53.450Z,23.10
2022-08-05T18:01:49.579Z,22.90
2022-08-05T18:04:36.318Z,21.70
2022-08-05T18:07:41.131Z,20.90
2022-08-05T18:10:28.105Z,20.40
2022-08-05T18:13:17.943Z,20.10
2022-08-05T18:16:04.914Z,19.90
2022-08-05T18:18:50.872Z,19.70
2022-08-05T18:22:08.499Z,19.60
2022-08-05T18:24:42.507Z,19.50
2022-08-05T18:27:28.382Z,19.50
2022-08-05T18:30:14.686Z,19.40
2022-08-05T18:33:01.263Z,19.30
2022-08-05T18:36:00.981Z,19.20
2022-08-05T18:38:49.531Z,19.20
2022-08-05T18:42:00.543Z,19.10
2022-08-05T18:44:49.447Z,19.10
2022-08-05T18:47:42.255Z,19.10
2022-08-05T18:50:46.984Z,19.10
2022-08-05T18:53:34.713Z,19.10
2022-08-05T18:56:29.330Z,19.10
2022-08-05T18:59:44.113Z,19.10
2022-08-05T19:02:27.769Z,19.20
2022-08-05T19:06:11.039Z,19.20
2022-08-05T19:08:21.651Z,19.10
2022-08-05T19:11:07.856Z,19.10
2022-08-05T19:14:00.773Z,19.00
2022-08-05T19:16:47.771Z,19.10
2022-08-05T19:19:33.395Z,19.10
2022-08-05T19:22:22.778Z,19.00
2022-08-05T19:25:29.518Z,19.10
2022-08-05T19:28:16.828Z,19.10
2022-08-05T19:31:05.875Z,19.10
2022-08-05T19:33:56.462Z,19.10
2022-08-05T19:36:43.451Z,19.10
2022-08-05T19:39:45.568Z,19.10
2022-08-05T19:42:36.881Z,19.10
2022-08-05T19:45:25.594Z,19.10
2022-08-05T19:48:14.260Z,19.10
2022-08-05T19:51:00.375Z,19.10
2022-08-05T19:54:04.999Z,19.10
2022-08-05T19:56:51.997Z,19.10
2022-08-05T19:59:55.339Z,19.20
2022-08-05T20:02:46.486Z,19.20
2022-08-05T20:05:50.141Z,19.10
2022-08-05T20:08:36.633Z,19.10
2022-08-05T20:11:24.684Z,19.00
2022-08-05T20:14:14.413Z,19.00
2022-08-05T20:17:06.475Z,19.00
2022-08-05T20:19:56.693Z,19.20
2022-08-05T20:22:43.317Z,19.00
2022-08-05T20:25:33.866Z,18.90
2022-08-05T20:28:25.572Z,18.90
2022-08-05T20:31:13.031Z,18.90
2022-08-05T20:33:58.966Z,18.80
2022-08-05T20:36:44.713Z,18.80
2022-08-05T20:39:36.616Z,18.90
2022-08-05T20:42:22.873Z,18.90
2022-08-05T20:45:13.969Z,18.80
2022-08-05T20:48:00.357Z,18.80
2022-08-05T20:50:47.015Z,18.80
2022-08-05T20:53:36.828Z,18.80
2022-08-05T20:56:27.653Z,18.80
2022-08-05T20:59:26.226Z,18.80
2022-08-05T21:02:12.951Z,18.80
2022-08-05T21:05:05.736Z,18.80
2022-08-05T21:07:55.186Z,18.90
2022-08-05T21:10:48.476Z,18.80
2022-08-05T21:13:47.975Z,18.90
2022-08-05T21:16:40.947Z,18.90
2022-08-05T21:19:26.799Z,18.90
2022-08-05T21:22:14.724Z,18.90
2022-08-05T21:25:04.367Z,18.90
2022-08-05T21:27:52.966Z,18.90
2022-08-05T21:30:40.052Z,18.90
2022-08-05T21:33:37.119Z,18.90
2022-08-05T21:36:30.057Z,18.90
2022-08-05T21:39:17.003Z,18.90
2022-08-05T21:42:31.004Z,18.90
2022-08-05T21:45:25.241Z,18.80
2022-08-05T21:48:24.475Z,18.80
2022-08-05T21:52:16.637Z,18.70
2022-08-05T21:54:16.401Z,18.70
2022-08-05T21:57:31.288Z,18.70
2022-08-05T22:00:18.561Z,18.70
2022-08-05T22:03:04.935Z,18.70
2022-08-05T22:05:50.894Z,18.70
2022-08-05T22:08:36.791Z,18.70
2022-08-05T22:11:35.182Z,18.60
2022-08-05T22:14:35.793Z,18.60
2022-08-05T22:17:24.309Z,18.60
2022-08-05T22:20:14.737Z,18.60
2022-08-05T22:23:21.366Z,18.60
2022-08-05T22:26:34.211Z,18.60
2022-08-05T22:29:26.244Z,18.60
2022-08-05T22:32:12.223Z,18.50
2022-08-05T22:35:03.788Z,18.50
2022-08-05T22:37:58.013Z,18.50
2022-08-05T22:40:50.023Z,18.40
2022-08-05T22:43:41.344Z,18.20
2022-08-05T22:46:27.313Z,18.20
2022-08-05T22:50:17.596Z,18.20
2022-08-05T22:52:22.905Z,18.30
2022-08-05T22:55:21.339Z,18.20
2022-08-05T22:58:07.500Z,18.20
2022-08-05T23:00:57.548Z,18.20
2022-08-05T23:03:58.000Z,18.10
2022-08-05T23:06:45.361Z,18.10
2022-08-05T23:09:57.166Z,18.10
2022-08-05T23:12:38.226Z,18.10
2022-08-05T23:15:29.436Z,18.10
2022-08-05T23:18:20.578Z,18.10
2022-08-05T23:21:10.084Z,18.00
2022-08-05T23:23:56.347Z,18.00
2022-08-05T23:26:42.343Z,18.00
2022-08-05T23:29:29.849Z,18.00
2022-08-05T23:32:22.696Z,17.90
2022-08-05T23:35:09.459Z,17.90
2022-08-05T23:37:55.344Z,17.80
2022-08-05T23:40:42.245Z,17.80
2022-08-05T23:43:37.261Z,17.70
2022-08-05T23:46:41.180Z,17.70
2022-08-05T23:49:36.028Z,17.70
2022-08-05T23:52:29.391Z,17.70
2022-08-05T23:55:16.556Z,17.60
2022-08-05T23:58:03.604Z,17.60
